Time;durP1;ratioP1;P1;durP2;ratioP2;P2;SDS_P1;SDS_P2;PMS_P1;PMS_P2;Temp;Humidity;BMP_temperature;BMP_pressure;BME280_temperature;BME280_humidity;BME280_pressure;Samples;Min_cycle;Max_cycle;Signal;HPM_P1;HPM_P2
2022/09/09 00:02:10;;;;;;;1.17;1.08;;;;;;;;;;5022912;28;20527;-78
2022/09/09 00:04:37;;;;;;;0.90;0.90;;;;;;;;;;5023211;28;20052;-77
2022/09/09 00:07:23;;;;;;;1.05;0.95;;;;;;;;;;5024370;28;20068;-78
2022/09/09 00:10:14;;;;;;;0.75;0.75;;;;;;;;;;5023019;28;20045;-78
2022/09/09 00:12:46;;;;;;;1.10;0.90;;;;;;;;;;5023732;28;20576;-77
2022/09/09 00:15:20;;;;;;;1.30;1.17;;;;;;;;;;5024393;28;20077;-78
2022/09/09 00:18:07;;;;;;;0.98;0.98;;;;;;;;;;5023817;28;20049;-78
2022/09/09 00:20:40;;;;;;;1.10;1.10;;;;;;;;;;5010490;28;20128;-78
2022/09/09 00:23:19;;;;;;;0.80;0.80;;;;;;;;;;5023252;28;20522;-79
2022/09/09 00:25:57;;;;;;;1.23;1.13;;;;;;;;;;5023812;28;20057;-77
2022/09/09 00:28:25;;;;;;;1.38;1.10;;;;;;;;;;5023842;28;20617;-78
2022/09/09 00:30:51;;;;;;;1.08;0.80;;;;;;;;;;5023596;28;20043;-78
2022/09/09 00:33:23;;;;;;;1.67;1.33;;;;;;;;;;5024018;28;20233;-78
2022/09/09 00:35:53;;;;;;;0.93;0.93;;;;;;;;;;5024589;28;20068;-79
2022/09/09 00:38:28;;;;;;;1.30;1.20;;;;;;;;;;5022475;28;20033;-78
2022/09/09 00:41:01;;;;;;;1.40;1.30;;;;;;;;;;5021343;28;20045;-78
2022/09/09 00:43:30;;;;;;;1.10;1.10;;;;;;;;;;5023625;28;20064;-78
2022/09/09 00:46:06;;;;;;;1.25;1.15;;;;;;;;;;5023307;28;20488;-78
2022/09/09 00:48:41;;;;;;;1.17;1.08;;;;;;;;;;5023297;28;20049;-78
2022/09/09 00:51:31;;;;;;;1.08;1.00;;;;;;;;;;5024490;28;20392;-78
2022/09/09 00:54:23;;;;;;;1.13;1.02;;;;;;;;;;5023012;28;20045;-78
2022/09/09 00:57:04;;;;;;;1.20;1.10;;;;;;;;;;5020290;28;20392;-78
2022/09/09 00:59:40;;;;;;;1.38;1.15;;;;;;;;;;5023793;28;20503;-78
2022/09/09 01:02:21;;;;;;;1.33;1.02;;;;;;;;;;5020419;28;20052;-78
2022/09/09 01:04:47;;;;;;;1.35;1.10;;;;;;;;;;5021702;28;20040;-77
2022/09/09 01:07:18;;;;;;;1.13;0.93;;;;;;;;;;5023334;28;20049;-78
2022/09/09 01:09:58;;;;;;;1.23;1.00;;;;;;;;;;5023684;28;20041;-79
2022/09/09 01:12:31;;;;;;;1.23;1.10;;;;;;;;;;5021846;28;20046;-78
2022/09/09 01:15:03;;;;;;;0.80;0.80;;;;;;;;;;5022703;28;20089;-78
2022/09/09 01:17:34;;;;;;;1.00;1.00;;;;;;;;;;5022991;28;20561;-78
2022/09/09 01:20:06;;;;;;;1.90;1.08;;;;;;;;;;5023544;28;20330;-78
2022/09/09 01:22:35;;;;;;;0.98;0.95;;;;;;;;;;5021757;28;20056;-77
2022/09/09 01:25:19;;;;;;;1.52;1.23;;;;;;;;;;5022487;28;20041;-78
2022/09/09 01:27:47;;;;;;;1.52;1.35;;;;;;;;;;5022183;28;20049;-77
2022/09/09 01:30:14;;;;;;;1.50;1.20;;;;;;;;;;5023397;28;20060;-78
2022/09/09 01:32:40;;;;;;;1.23;1.10;;;;;;;;;;5023791;28;20488;-78
2022/09/09 01:35:09;;;;;;;1.13;1.08;;;;;;;;;;5023575;28;20137;-78
2022/09/09 01:37:35;;;;;;;1.23;1.02;;;;;;;;;;5022733;28;20257;-79
2022/09/09 01:40:01;;;;;;;1.20;1.13;;;;;;;;;;5023899;28;20049;-79
2022/09/09 01:42:27;;;;;;;1.20;1.10;;;;;;;;;;5022823;28;20585;-79
2022/09/09 01:44:54;;;;;;;1.48;1.38;;;;;;;;;;5022982;28;20084;-79
2022/09/09 01:47:20;;;;;;;1.55;1.45;;;;;;;;;;5021728;28;20056;-79
2022/09/09 01:49:46;;;;;;;1.55;1.08;;;;;;;;;;5022177;28;20048;-77
2022/09/09 01:52:12;;;;;;;2.25;1.00;;;;;;;;;;5022407;28;20049;-78
2022/09/09 01:54:38;;;;;;;1.20;1.10;;;;;;;;;;5023375;28;20075;-78
2022/09/09 01:57:04;;;;;;;1.33;1.15;;;;;;;;;;5023593;28;20038;-78
2022/09/09 01:59:43;;;;;;;1.10;1.00;;;;;;;;;;5022538;28;20045;-78
2022/09/09 02:02:11;;;;;;;0.77;0.77;;;;;;;;;;5018575;28;20049;-78
2022/09/09 02:04:42;;;;;;;0.80;0.60;;;;;;;;;;5023660;28;20052;-78
2022/09/09 02:07:14;;;;;;;1.27;1.17;;;;;;;;;;5021247;28;20615;-78
2022/09/09 02:09:42;;;;;;;0.77;0.77;;;;;;;;;;5023598;28;20518;-78
2022/09/09 02:12:14;;;;;;;1.27;1.17;;;;;;;;;;5017808;28;20759;-78
2022/09/09 02:14:42;;;;;;;0.95;0.95;;;;;;;;;;5022112;28;20057;-78
2022/09/09 02:17:10;;;;;;;1.10;1.00;;;;;;;;;;5022053;28;20037;-79
2022/09/09 02:19:39;;;;;;;1.45;1.00;;;;;;;;;;5021406;28;20053;-78
2022/09/09 02:22:05;;;;;;;1.55;1.05;;;;;;;;;;5023291;28;20076;-78
2022/09/09 02:24:34;;;;;;;1.98;1.40;;;;;;;;;;5023222;28;20050;-78
2022/09/09 02:27:01;;;;;;;0.85;0.85;;;;;;;;;;5022813;28;20049;-78
2022/09/09 02:29:29;;;;;;;1.77;1.67;;;;;;;;;;5026756;28;20041;-78
2022/09/09 02:31:57;;;;;;;1.27;1.17;;;;;;;;;;5026938;28;20044;-78
2022/09/09 02:34:24;;;;;;;1.35;1.25;;;;;;;;;;5026053;28;20041;-77
2022/09/09 02:36:50;;;;;;;;;;;;;;;;;;5025828;28;20046;-77
2022/09/09 02:39:15;;;;;;;;;;;;;;;;;;5026235;28;19932;-77
2022/09/09 02:41:41;;;;;;;;;;;;;;;;;;5027151;28;19925;-77
2022/09/09 02:44:07;;;;;;;;;;;;;;;;;;5025595;28;19929;-78
2022/09/09 02:46:33;;;;;;;;;;;;;;;;;;5024577;28;19925;-78
2022/09/09 02:48:59;;;;;;;;;;;;;;;;;;5025591;28;19921;-78
2022/09/09 02:51:25;;;;;;;;;;;;;;;;;;5026592;28;19988;-78
2022/09/09 02:53:51;;;;;;;;;;;;;;;;;;5026853;28;19917;-78
2022/09/09 02:56:17;;;;;;;;;;;;;;;;;;5024915;28;19948;-78
2022/09/09 02:58:43;;;;;;;;;;;;;;;;;;5026113;28;19928;-78
2022/09/09 03:01:09;;;;;;;;;;;;;;;;;;5024875;28;19917;-79
2022/09/09 03:03:35;;;;;;;;;;;;;;;;;;5024895;28;19932;-79
2022/09/09 03:06:01;;;;;;;;;;;;;;;;;;5025370;28;19929;-79
2022/09/09 03:08:27;;;;;;;;;;;;;;;;;;5025719;28;19929;-78
2022/09/09 03:10:54;;;;;;;;;;;;;;;;;;5025174;28;19921;-79
2022/09/09 03:13:20;;;;;;;;;;;;;;;;;;5026781;28;19957;-78
2022/09/09 03:15:45;;;;;;;;;;;;;;;;;;5024321;28;19975;-79
2022/09/09 03:18:11;;;;;;;;;;;;;;;;;;5026389;28;20415;-79
2022/09/09 03:20:37;;;;;;;;;;;;;;;;;;5026196;28;19925;-80
2022/09/09 03:23:03;;;;;;;;;;;;;;;;;;5024411;28;19927;-79
2022/09/09 03:25:29;;;;;;;;;;;;;;;;;;5026170;28;19921;-80
2022/09/09 03:27:55;;;;;;;;;;;;;;;;;;5026496;28;20481;-79
2022/09/09 03:30:21;;;;;;;;;;;;;;;;;;5025850;28;20045;-78
2022/09/09 03:32:47;;;;;;;;;;;;;;;;;;5023970;28;19932;-79
2022/09/09 03:35:13;;;;;;;;;;;;;;;;;;5026770;28;20007;-79
2022/09/09 03:37:39;;;;;;;;;;;;;;;;;;5023753;28;20620;-79
2022/09/09 03:40:06;;;;;;;;;;;;;;;;;;5025351;28;20400;-79
2022/09/09 03:42:32;;;;;;;;;;;;;;;;;;5025676;28;19933;-79
2022/09/09 03:44:59;;;;;;;;;;;;;;;;;;5025541;28;20238;-79
2022/09/09 03:47:25;;;;;;;;;;;;;;;;;;5025604;28;19925;-78
2022/09/09 03:49:51;;;;;;;;;;;;;;;;;;5025938;28;19930;-78
2022/09/09 03:52:18;;;;;;;;;;;;;;;;;;5025413;28;19929;-78
2022/09/09 03:54:44;;;;;;;;;;;;;;;;;;5026310;28;19932;-79
2022/09/09 03:57:10;;;;;;;;;;;;;;;;;;5025147;28;20312;-79
2022/09/09 03:59:36;;;;;;;;;;;;;;;;;;5023366;28;19932;-78
2022/09/09 04:02:02;;;;;;;;;;;;;;;;;;5023608;28;19929;-79
2022/09/09 04:04:28;;;;;;;;;;;;;;;;;;5023435;28;19928;-78
2022/09/09 04:06:54;;;;;;;1.52;1.42;;;;;;;;;;5023493;28;19928;-80
2022/09/09 04:09:20;;;;;;;1.80;1.70;;;;;;;;;;5025643;28;20049;-79
2022/09/09 04:11:46;;;;;;;1.50;1.40;;;;;;;;;;5021687;28;20064;-79
2022/09/09 04:14:12;;;;;;;1.60;1.30;;;;;;;;;;5025813;28;20049;-79
2022/09/09 04:16:38;;;;;;;1.25;1.13;;;;;;;;;;5024617;28;20060;-79
2022/09/09 04:19:06;;;;;;;0.93;0.93;;;;;;;;;;5024306;28;20484;-78
2022/09/09 04:21:32;;;;;;;1.60;1.35;;;;;;;;;;5023378;28;20539;-78
2022/09/09 04:23:58;;;;;;;1.50;1.40;;;;;;;;;;5023843;28;20285;-78
2022/09/09 04:26:24;;;;;;;1.17;1.08;;;;;;;;;;5022975;28;20495;-78
2022/09/09 04:28:50;;;;;;;1.45;1.27;;;;;;;;;;5024503;28;20037;-78
2022/09/09 04:31:18;;;;;;;0.90;0.90;;;;;;;;;;5024882;28;20038;-78
2022/09/09 04:33:44;;;;;;;;;;;;;;;;;;5022344;28;20483;-78
2022/09/09 04:36:10;;;;;;;;;;;;;;;;;;5024226;28;19925;-78
2022/09/09 04:38:36;;;;;;;;;;;;;;;;;;5024839;28;19929;-78
2022/09/09 04:41:02;;;;;;;;;;;;;;;;;;5023853;28;19929;-77
2022/09/09 04:43:27;;;;;;;;;;;;;;;;;;5023321;28;19924;-78
2022/09/09 04:45:53;;;;;;;;;;;;;;;;;;5024039;28;19936;-78
2022/09/09 04:48:19;;;;;;;;;;;;;;;;;;5022334;28;19918;-78
2022/09/09 04:50:46;;;;;;;;;;;;;;;;;;5022877;28;19978;-78
2022/09/09 04:53:11;;;;;;;;;;;;;;;;;;5025857;28;19952;-78
2022/09/09 04:55:37;;;;;;;;;;;;;;;;;;5022170;28;20411;-78
2022/09/09 04:58:03;;;;;;;;;;;;;;;;;;5023689;28;19921;-78
2022/09/09 05:00:29;;;;;;;;;;;;;;;;;;5023274;28;19920;-77
2022/09/09 05:02:55;;;;;;;;;;;;;;;;;;5021982;28;19928;-77
2022/09/09 05:05:22;;;;;;;;;;;;;;;;;;5023424;28;20035;-78
2022/09/09 05:07:49;;;;;;;;;;;;;;;;;;5022446;28;19925;-78
2022/09/09 05:10:17;;;;;;;;;;;;;;;;;;5025339;28;19931;-78
2022/09/09 05:12:43;;;;;;;;;;;;;;;;;;5023788;28;19923;-78
2022/09/09 05:15:10;;;;;;;;;;;;;;;;;;5022598;28;20007;-78
2022/09/09 05:17:35;;;;;;;;;;;;;;;;;;5023430;28;19952;-78
2022/09/09 05:20:03;;;;;;;;;;;;;;;;;;5024387;28;20742;-78
2022/09/09 05:22:30;;;;;;;;;;;;;;;;;;5021533;28;19943;-78
2022/09/09 05:24:56;;;;;;;;;;;;;;;;;;5021985;28;19924;-78
2022/09/09 05:27:22;;;;;;;;;;;;;;;;;;5022934;28;20295;-78
2022/09/09 05:29:48;;;;;;;;;;;;;;;;;;5022302;28;19920;-78
2022/09/09 05:32:16;;;;;;;2.50;2.30;;;;;;;;;;5024728;28;20409;-78
2022/09/09 05:34:41;;;;;;;;;;;;;;;;;;5022251;28;20041;-79
2022/09/09 05:37:07;;;;;;;;;;;;;;;;;;5022286;28;20048;-78
2022/09/09 05:39:33;;;;;;;;;;;;;;;;;;5022666;28;19920;-78
2022/09/09 05:41:59;;;;;;;;;;;;;;;;;;5022549;28;19928;-78
2022/09/09 05:44:27;;;;;;;;;;;;;;;;;;5023344;28;20433;-78
2022/09/09 05:46:54;;;;;;;;;;;;;;;;;;5022570;28;19996;-79
2022/09/09 05:49:20;;;;;;;;;;;;;;;;;;5021579;28;20360;-81
2022/09/09 05:51:47;;;;;;;;;;;;;;;;;;5023166;28;20045;-79
2022/09/09 05:54:15;;;;;;;;;;;;;;;;;;5024802;28;20446;-79
2022/09/09 05:56:41;;;;;;;;;;;;;;;;;;5022643;28;19925;-79
2022/09/09 05:59:07;;;;;;;1.65;1.55;;;;;;;;;;5021546;28;19925;-79
2022/09/09 06:01:34;;;;;;;2.30;2.10;;;;;;;;;;5025252;28;20092;-79
2022/09/09 06:04:00;;;;;;;;;;;;;;;;;;5026015;28;20412;-77
2022/09/09 06:06:26;;;;;;;;;;;;;;;;;;5026514;28;19925;-78
2022/09/09 06:08:52;;;;;;;;;;;;;;;;;;5025442;28;19964;-78
2022/09/09 06:11:18;;;;;;;;;;;;;;;;;;5025755;28;19921;-78
2022/09/09 06:13:44;;;;;;;;;;;;;;;;;;5026839;28;20016;-78
2022/09/09 06:16:11;;;;;;;;;;;;;;;;;;5025534;28;19925;-77
2022/09/09 06:18:37;;;;;;;;;;;;;;;;;;5025643;28;19929;-78
2022/09/09 06:21:04;;;;;;;;;;;;;;;;;;5024891;28;20330;-78
2022/09/09 06:23:30;;;;;;;;;;;;;;;;;;5024003;28;20423;-78
2022/09/09 06:25:56;;;;;;;;;;;;;;;;;;5025730;28;19971;-78
2022/09/09 06:28:22;;;;;;;;;;;;;;;;;;5024844;28;20397;-79
2022/09/09 06:30:47;;;;;;;;;;;;;;;;;;5025770;28;19921;-79
2022/09/09 06:33:13;;;;;;;;;;;;;;;;;;5025734;28;19924;-78
2022/09/09 06:35:39;;;;;;;;;;;;;;;;;;5025072;28;20403;-78
2022/09/09 06:38:05;;;;;;;;;;;;;;;;;;5022259;28;20173;-78
2022/09/09 06:40:31;;;;;;;;;;;;;;;;;;5023811;28;20455;-78
2022/09/09 06:42:57;;;;;;;;;;;;;;;;;;5023953;28;20413;-79
2022/09/09 06:45:23;;;;;;;;;;;;;;;;;;5025974;28;20364;-79
2022/09/09 06:47:49;;;;;;;;;;;;;;;;;;5023717;28;19921;-79
2022/09/09 06:50:16;;;;;;;;;;;;;;;;;;5026608;28;19921;-79
2022/09/09 06:52:42;;;;;;;;;;;;;;;;;;5024802;28;19935;-79
2022/09/09 06:55:08;;;;;;;;;;;;;;;;;;5025237;28;20288;-79
2022/09/09 06:57:34;;;;;;;3.65;2.70;;;;;;;;;;5023847;28;19928;-79
2022/09/09 07:00:00;;;;;;;;;;;;;;;;;;5023413;28;20111;-79
2022/09/09 07:02:26;;;;;;;;;;;;;;;;;;5019680;28;19932;-79
2022/09/09 07:04:52;;;;;;;;;;;;;;;;;;4987105;28;1038937;-79
2022/09/09 07:07:18;;;;;;;;;;;;;;;;;;5025893;28;20077;-79
2022/09/09 07:09:45;;;;;;;;;;;;;;;;;;5027778;28;20538;-78
2022/09/09 07:12:11;;;;;;;;;;;;;;;;;;5023727;28;20349;-79
2022/09/09 07:14:37;;;;;;;;;;;;;;;;;;5006527;28;19929;-79
2022/09/09 07:17:03;;;;;;;;;;;;;;;;;;5020618;28;19999;-79
2022/09/09 07:19:29;;;;;;;;;;;;;;;;;;5028027;28;20339;-79
2022/09/09 07:21:55;;;;;;;;;;;;;;;;;;5025368;28;19921;-78
2022/09/09 07:24:21;;;;;;;;;;;;;;;;;;5026717;28;19921;-79
2022/09/09 07:26:46;;;;;;;;;;;;;;;;;;5026870;28;20047;-79
2022/09/09 07:29:15;;;;;;;;;;;;;;;;;;5027674;28;19921;-79
2022/09/09 07:31:42;;;;;;;;;;;;;;;;;;5026110;28;19978;-78
2022/09/09 07:34:08;;;;;;;2.22;1.73;;;;;;;;;;5025376;28;19975;-79
2022/09/09 07:36:35;;;;;;;2.00;1.90;;;;;;;;;;5024138;28;20053;-78
2022/09/09 07:39:05;;;;;;;2.25;2.00;;;;;;;;;;5019133;28;20045;-79
2022/09/09 07:41:35;;;;;;;2.30;1.73;;;;;;;;;;5026188;28;20723;-79
2022/09/09 07:44:05;;;;;;;2.10;1.92;;;;;;;;;;5025612;28;20042;-78
2022/09/09 07:46:31;;;;;;;;;;;;;;;;;;5026989;28;20049;-77
2022/09/09 07:48:57;;;;;;;;;;;;;;;;;;5025775;28;20334;-79
2022/09/09 07:51:31;;;;;;;3.30;2.47;;;;;;;;;;5025043;28;20048;-64
2022/09/09 07:53:59;;;;;;;3.47;2.40;;;;;;;;;;5026713;28;20053;-65
2022/09/09 07:56:26;;;;;;;2.78;2.45;;;;;;;;;;5026595;28;20041;-73
2022/09/09 07:58:53;;;;;;;2.58;1.98;;;;;;;;;;5025575;28;20049;-69
2022/09/09 08:01:27;;;;;;;2.30;2.20;;;;;;;;;;5025872;28;20530;-70
2022/09/09 08:04:01;;;;;;;2.95;2.75;;;;;;;;;;5022840;28;20389;-69
2022/09/09 08:06:28;;;;;;;2.72;2.42;;;;;;;;;;5006712;28;20088;-79
2022/09/09 08:08:54;;;;;;;2.53;2.25;;;;;;;;;;5005584;28;20160;-80
2022/09/09 08:11:22;;;;;;;2.28;2.10;;;;;;;;;;5021005;28;20116;-80
2022/09/09 08:13:49;;;;;;;2.47;2.28;;;;;;;;;;5026204;28;20046;-76
2022/09/09 08:16:17;;;;;;;2.42;2.20;;;;;;;;;;5026519;28;20507;-79
2022/09/09 08:18:44;;;;;;;3.78;2.28;;;;;;;;;;5025187;28;20071;-76
2022/09/09 08:21:14;;;;;;;2.50;2.30;;;;;;;;;;5026714;28;20049;-76
2022/09/09 08:23:45;;;;;;;2.50;2.30;;;;;;;;;;5024419;28;20045;-70
2022/09/09 08:26:11;;;;;;;3.78;2.35;;;;;;;;;;5025072;28;20049;-76
2022/09/09 08:28:38;;;;;;;3.45;2.53;;;;;;;;;;5026383;28;20077;-74
2022/09/09 08:31:12;;;;;;;3.75;2.58;;;;;;;;;;5024777;28;20041;-76
2022/09/09 08:33:38;;;;;;;3.45;2.85;;;;;;;;;;5020948;28;20043;-75
2022/09/09 08:36:05;;;;;;;2.22;1.75;;;;;;;;;;5024742;28;20543;-75
2022/09/09 08:38:31;;;;;;;5.32;2.42;;;;;;;;;;5023623;28;20052;-75
2022/09/09 08:41:04;;;;;;;4.80;2.22;;;;;;;;;;5024309;28;20041;-75
2022/09/09 08:43:32;;;;;;;1.95;1.85;;;;;;;;;;5026617;28;20052;-75
2022/09/09 08:46:21;;;;;;;3.25;2.08;;;;;;;;;;5023967;28;20056;-75
2022/09/09 08:48:53;;;;;;;3.17;2.00;;;;;;;;;;5017400;28;20132;-76
2022/09/09 08:51:20;;;;;;;2.72;2.47;;;;;;;;;;5025277;28;20049;-75
2022/09/09 08:53:48;;;;;;;1.95;1.85;;;;;;;;;;5024493;28;20077;-74
2022/09/09 08:56:18;;;;;;;2.20;2.00;;;;;;;;;;5025676;28;20084;-75
2022/09/09 08:58:50;;;;;;;2.20;1.75;;;;;;;;;;5025969;28;20053;-75
2022/09/09 09:01:19;;;;;;;1.88;1.73;;;;;;;;;;5025016;28;20088;-75
2022/09/09 09:03:55;;;;;;;2.38;1.80;;;;;;;;;;5025746;28;20045;-75
2022/09/09 09:06:34;;;;;;;2.45;1.95;;;;;;;;;;5025395;28;20088;-75
2022/09/09 09:09:00;;;;;;;2.55;1.83;;;;;;;;;;5023794;28;20731;-75
2022/09/09 09:11:26;;;;;;;2.17;1.98;;;;;;;;;;5024304;28;20057;-74
2022/09/09 09:14:02;;;;;;;3.35;2.30;;;;;;;;;;5020617;28;20041;-75
2022/09/09 09:16:32;;;;;;;1.98;1.40;;;;;;;;;;5021003;28;20491;-76
2022/09/09 09:18:59;;;;;;;2.63;1.73;;;;;;;;;;5018282;28;20057;-75
2022/09/09 09:21:41;;;;;;;4.05;2.28;;;;;;;;;;5015406;28;20052;-75
2022/09/09 09:24:11;;;;;;;3.45;2.50;;;;;;;;;;5008923;28;20460;-76
2022/09/09 09:26:38;;;;;;;3.22;2.35;;;;;;;;;;5024165;28;20282;-74
2022/09/09 09:29:24;;;;;;;4.30;2.78;;;;;;;;;;5024248;28;20052;-74
2022/09/09 09:32:00;;;;;;;5.78;2.38;;;;;;;;;;5010599;28;20100;-75
2022/09/09 09:34:28;;;;;;;3.38;2.22;;;;;;;;;;5004110;28;19922;-74
2022/09/09 09:36:55;;;;;;;4.65;1.80;;;;;;;;;;5003085;28;20052;-74
2022/09/09 09:39:36;;;;;;;2.60;1.73;;;;;;;;;;5005539;28;20561;-74
2022/09/09 09:42:10;;;;;;;2.80;1.50;;;;;;;;;;5013011;28;20072;-74
2022/09/09 09:44:37;;;;;;;3.10;1.98;;;;;;;;;;5006379;28;20104;-75
2022/09/09 09:47:12;;;;;;;2.72;1.63;;;;;;;;;;5014048;28;20088;-74
2022/09/09 09:49:39;;;;;;;4.25;2.30;;;;;;;;;;5023092;28;20395;-75
2022/09/09 09:52:07;;;;;;;4.38;2.35;;;;;;;;;;5018383;28;20057;-75
2022/09/09 09:54:42;;;;;;;2.83;1.80;;;;;;;;;;5023750;28;20053;-78
2022/09/09 09:57:18;;;;;;;3.63;1.30;;;;;;;;;;5023106;28;20054;-78
2022/09/09 09:59:44;;;;;;;1.85;1.30;;;;;;;;;;5023082;28;20049;-75
2022/09/09 10:02:13;;;;;;;3.47;1.55;;;;;;;;;;5012909;28;20060;-77
2022/09/09 10:04:39;;;;;;;3.65;1.75;;;;;;;;;;5007741;28;20046;-78
2022/09/09 10:07:21;;;;;;;2.53;1.60;;;;;;;;;;5016130;28;20054;-77
2022/09/09 10:09:55;;;;;;;4.35;1.73;;;;;;;;;;5022615;28;20758;-78
2022/09/09 10:12:28;;;;;;;3.10;1.55;;;;;;;;;;5023096;28;20451;-78
2022/09/09 10:15:06;;;;;;;4.20;1.10;;;;;;;;;;5023339;28;20075;-78
2022/09/09 10:17:32;;;;;;;6.50;1.77;;;;;;;;;;5017940;28;20065;-76
2022/09/09 10:19:58;;;;;;;3.75;1.90;;;;;;;;;;5017563;28;20087;-79
2022/09/09 10:22:28;;;;;;;5.60;1.83;;;;;;;;;;5022002;28;20045;-78
2022/09/09 10:24:54;;;;;;;2.92;1.35;;;;;;;;;;5019794;28;20096;-78
2022/09/09 10:27:36;;;;;;;4.25;1.38;;;;;;;;;;5014667;28;20077;-78
2022/09/09 10:30:21;;;;;;;4.88;1.63;;;;;;;;;;5003535;28;20062;-78
2022/09/09 10:32:57;;;;;;;2.78;1.23;;;;;;;;;;5016681;28;20046;-68
2022/09/09 10:35:25;;;;;;;3.15;1.27;;;;;;;;;;5023663;28;20462;-77
2022/09/09 10:38:01;;;;;;;2.65;1.55;;;;;;;;;;5023179;28;20045;-78
2022/09/09 10:40:51;;;;;;;3.45;1.30;;;;;;;;;;5022900;28;20053;-77
2022/09/09 10:43:24;;;;;;;3.03;1.52;;;;;;;;;;5006844;28;20174;-77
2022/09/09 10:46:09;;;;;;;4.00;1.30;;;;;;;;;;5005259;28;20064;-75
2022/09/09 10:48:42;;;;;;;3.40;1.20;;;;;;;;;;5025409;28;20419;-76
2022/09/09 10:51:31;;;;;;;5.78;1.67;;;;;;;;;;5020280;28;20045;-75
2022/09/09 10:54:17;;;;;;;5.57;1.95;;;;;;;;;;4991876;28;20057;-76
2022/09/09 10:56:46;;;;;;;5.40;2.08;;;;;;;;;;5021388;28;20056;-77
2022/09/09 10:59:20;;;;;;;3.60;1.17;;;;;;;;;;5024308;28;20043;-76
2022/09/09 11:01:50;;;;;;;2.03;1.10;;;;;;;;;;5009353;28;20049;-77
2022/09/09 11:04:22;;;;;;;3.20;1.20;;;;;;;;;;5007953;28;20112;-76
2022/09/09 11:06:52;;;;;;;1.75;0.77;;;;;;;;;;5011068;28;20053;-76
2022/09/09 11:09:20;;;;;;;3.45;1.38;;;;;;;;;;5017851;28;20052;-76
2022/09/09 11:11:56;;;;;;;1.15;0.65;;;;;;;;;;5022348;28;20052;-77
2022/09/09 11:14:29;;;;;;;1.15;0.73;;;;;;;;;;5006384;28;20135;-75
2022/09/09 11:17:01;;;;;;;1.27;0.77;;;;;;;;;;5017908;28;20064;-76
2022/09/09 11:19:40;;;;;;;3.38;0.98;;;;;;;;;;5011396;28;20148;-76
2022/09/09 11:22:06;;;;;;;5.05;1.35;;;;;;;;;;5012745;28;20042;-76
2022/09/09 11:24:36;;;;;;;3.55;1.38;;;;;;;;;;5016130;28;20048;-76
2022/09/09 11:27:09;;;;;;;5.15;1.50;;;;;;;;;;5019786;28;20049;-76
2022/09/09 11:29:47;;;;;;;2.35;0.90;;;;;;;;;;5027122;28;20060;-76
2022/09/09 11:32:16;;;;;;;2.40;1.30;;;;;;;;;;5027918;28;20128;-76
2022/09/09 11:34:53;;;;;;;5.82;1.45;;;;;;;;;;5025745;28;20053;-76
2022/09/09 11:37:19;;;;;;;1.50;0.88;;;;;;;;;;5026374;28;20091;-78
2022/09/09 11:40:01;;;;;;;1.98;1.00;;;;;;;;;;5024794;28;20041;-78
2022/09/09 11:42:27;;;;;;;1.33;0.88;;;;;;;;;;5014592;28;20050;-79
2022/09/09 11:44:54;;;;;;;3.97;1.10;;;;;;;;;;5006880;28;20042;-79
2022/09/09 11:47:29;;;;;;;2.33;1.25;;;;;;;;;;5007445;28;20061;-79
2022/09/09 11:49:55;;;;;;;2.47;1.20;;;;;;;;;;5005469;28;20507;-77
2022/09/09 11:52:26;;;;;;;3.72;1.50;;;;;;;;;;5007480;28;20046;-79
2022/09/09 11:54:56;;;;;;;2.57;1.37;;;;;;;;;;5007121;28;20850;-78
2022/09/09 11:57:33;;;;;;;4.90;1.08;;;;;;;;;;5004665;28;20741;-79
2022/09/09 11:59:59;;;;;;;2.15;1.13;;;;;;;;;;5024085;28;20463;-78
2022/09/09 12:02:27;;;;;;;2.05;1.00;;;;;;;;;;5024657;28;20172;-79
2022/09/09 12:05:09;;;;;;;4.65;1.20;;;;;;;;;;5026027;28;20126;-80
2022/09/09 12:07:35;;;;;;;;;;;;;;;;;;5025686;28;20520;-80
2022/09/09 12:10:19;;;;;;;2.45;0.93;;;;;;;;;;5025488;28;19971;-79
2022/09/09 12:12:45;;;;;;;5.10;1.40;;;;;;;;;;5018257;28;20045;-77
2022/09/09 12:15:11;;;;;;;2.40;0.90;;;;;;;;;;5027343;28;20067;-79
2022/09/09 12:17:58;;;;;;;3.75;1.33;;;;;;;;;;5023810;28;20061;-77
2022/09/09 12:20:24;;;;;;;3.08;1.02;;;;;;;;;;5005702;28;20049;-80
2022/09/09 12:22:50;;;;;;;4.50;0.80;;;;;;;;;;5016223;28;20045;-80
2022/09/09 12:25:20;;;;;;;1.13;0.63;;;;;;;;;;5013585;28;20084;-80
2022/09/09 12:28:05;;;;;;;3.15;0.90;;;;;;;;;;5023324;28;20136;-80
2022/09/09 12:30:35;;;;;;;3.13;1.02;;;;;;;;;;5022280;28;20045;-80
2022/09/09 12:33:02;;;;;;;1.92;0.90;;;;;;;;;;5024598;28;20044;-80
2022/09/09 12:35:29;;;;;;;2.03;0.80;;;;;;;;;;5025903;28;20081;-80
2022/09/09 12:37:58;;;;;;;3.90;1.17;;;;;;;;;;5023468;28;20543;-80
2022/09/09 12:40:25;;;;;;;4.32;0.93;;;;;;;;;;5024385;28;20045;-80
2022/09/09 12:42:51;;;;;;;1.80;0.80;;;;;;;;;;5023655;28;20050;-80
2022/09/09 12:45:25;;;;;;;2.63;0.68;;;;;;;;;;5025029;28;20048;-80
2022/09/09 12:48:03;;;;;;;3.40;0.90;;;;;;;;;;5024727;28;20508;-80
2022/09/09 12:50:31;;;;;;;2.97;1.05;;;;;;;;;;5023727;28;20080;-80
2022/09/09 12:53:11;;;;;;;3.20;1.02;;;;;;;;;;5024140;28;20056;-80
2022/09/09 12:55:38;;;;;;;3.08;1.38;;;;;;;;;;5024925;28;20617;-80
2022/09/09 12:58:05;;;;;;;3.65;1.00;;;;;;;;;;5025006;28;20055;-80
2022/09/09 13:00:32;;;;;;;2.40;1.00;;;;;;;;;;5023179;28;20037;-80
2022/09/09 13:02:59;;;;;;;1.25;0.50;;;;;;;;;;5017338;28;20042;-81
2022/09/09 13:05:26;;;;;;;2.35;0.70;;;;;;;;;;5020623;28;20441;-80
2022/09/09 13:07:52;;;;;;;1.23;0.80;;;;;;;;;;5022620;28;20049;-80
2022/09/09 13:10:24;;;;;;;1.55;0.80;;;;;;;;;;5023966;28;20044;-79
2022/09/09 13:12:50;;;;;;;;;;;;;;;;;;5025109;28;20077;-80
2022/09/09 13:15:24;;;;;;;2.17;1.10;;;;;;;;;;5023737;28;20338;-78
2022/09/09 13:17:52;;;;;;;1.90;1.00;;;;;;;;;;5019418;28;20058;-80
2022/09/09 13:20:19;;;;;;;3.03;1.17;;;;;;;;;;5023178;28;20099;-80
2022/09/09 13:22:45;;;;;;;1.40;0.70;;;;;;;;;;5024547;28;20051;-80
2022/09/09 13:25:12;;;;;;;2.15;0.98;;;;;;;;;;5022700;28;20044;-79
2022/09/09 13:27:42;;;;;;;1.30;0.65;;;;;;;;;;5022433;28;20050;-78
2022/09/09 13:30:25;;;;;;;1.27;0.52;;;;;;;;;;5023627;28;20045;-78
2022/09/09 13:33:21;;;;;;;1.48;0.77;;;;;;;;;;5023321;28;20053;-78
2022/09/09 13:35:56;;;;;;;2.33;0.90;;;;;;;;;;5004091;28;20072;-71
2022/09/09 13:38:22;;;;;;;1.92;0.75;;;;;;;;;;5023516;28;20049;-82
2022/09/09 13:40:57;;;;;;;2.88;0.95;;;;;;;;;;5021852;28;20038;-81
2022/09/09 13:43:24;;;;;;;1.42;0.60;;;;;;;;;;5021737;28;20619;-81
2022/09/09 13:45:57;;;;;;;2.30;0.73;;;;;;;;;;5023826;28;20042;-82
2022/09/09 13:48:24;;;;;;;2.03;0.75;;;;;;;;;;5023453;28;20049;-82
2022/09/09 13:51:01;;;;;;;2.03;0.60;;;;;;;;;;5022679;28;20635;-81
2022/09/09 13:53:27;;;;;;;4.00;0.70;;;;;;;;;;5025072;28;20037;-81
2022/09/09 13:55:53;;;;;;;1.75;0.70;;;;;;;;;;5022841;28;20135;-82
2022/09/09 13:58:19;;;;;;;1.83;0.67;;;;;;;;;;5024104;28;20052;-82
2022/09/09 14:00:46;;;;;;;2.75;1.00;;;;;;;;;;5025307;28;20076;-81
2022/09/09 14:03:12;;;;;;;6.13;1.10;;;;;;;;;;5025301;28;20057;-81
2022/09/09 14:05:38;;;;;;;3.42;1.00;;;;;;;;;;5025923;28;20057;-81
2022/09/09 14:08:06;;;;;;;1.70;0.52;;;;;;;;;;5024540;28;20053;-81
2022/09/09 14:10:32;;;;;;;3.60;1.10;;;;;;;;;;5024514;28;20041;-82
2022/09/09 14:12:58;;;;;;;2.35;0.60;;;;;;;;;;5023822;28;20049;-83
2022/09/09 14:15:24;;;;;;;1.15;0.75;;;;;;;;;;5024627;28;20425;-81
2022/09/09 14:17:52;;;;;;;3.97;0.93;;;;;;;;;;5023181;28;20550;-81
2022/09/09 14:20:19;;;;;;;0.80;0.50;;;;;;;;;;5025051;28;20057;-79
2022/09/09 14:22:45;;;;;;;1.40;0.75;;;;;;;;;;5030649;28;20258;-81
2022/09/09 14:25:13;;;;;;;1.98;0.98;;;;;;;;;;5030114;28;20084;-81
2022/09/09 14:27:39;;;;;;;1.63;0.50;;;;;;;;;;5028700;28;20053;-82
2022/09/09 14:30:05;;;;;;;4.53;0.75;;;;;;;;;;5029800;28;20046;-82
2022/09/09 14:32:32;;;;;;;1.73;0.60;;;;;;;;;;5027654;28;20057;-80
2022/09/09 14:34:58;;;;;;;3.00;0.80;;;;;;;;;;5027218;28;20057;-83
2022/09/09 14:37:25;;;;;;;2.40;0.52;;;;;;;;;;5027019;28;20084;-82
2022/09/09 14:39:51;;;;;;;0.93;0.50;;;;;;;;;;5026812;28;20080;-82
2022/09/09 14:42:18;;;;;;;0.68;0.30;;;;;;;;;;5027133;28;20049;-82
2022/09/09 14:44:44;;;;;;;0.52;0.32;;;;;;;;;;5027282;28;20049;-82
2022/09/09 14:47:10;;;;;;;0.80;0.30;;;;;;;;;;5027504;28;20080;-83
2022/09/09 14:49:36;;;;;;;0.85;0.45;;;;;;;;;;5028442;28;20081;-83
2022/09/09 14:52:03;;;;;;;0.73;0.50;;;;;;;;;;5027732;28;20492;-82
2022/09/09 14:54:29;;;;;;;2.38;0.63;;;;;;;;;;5027093;28;20132;-81
2022/09/09 14:56:56;;;;;;;1.80;0.52;;;;;;;;;;5028012;28;20041;-83
2022/09/09 14:59:22;;;;;;;1.88;0.80;;;;;;;;;;5026758;28;20174;-82
2022/09/09 15:01:48;;;;;;;2.45;0.40;;;;;;;;;;5027002;28;20124;-82
2022/09/09 15:04:15;;;;;;;0.90;0.45;;;;;;;;;;5028699;28;20484;-85
2022/09/09 15:06:43;;;;;;;1.45;0.50;;;;;;;;;;5027982;28;20053;-84
2022/09/09 15:09:09;;;;;;;0.70;0.40;;;;;;;;;;5026323;28;20092;-81
2022/09/09 15:11:39;;;;;;;0.50;0.40;;;;;;;;;;5027966;28;20577;-82
2022/09/09 15:14:06;;;;;;;1.02;0.40;;;;;;;;;;5027588;28;20340;-82
2022/09/09 15:16:32;;;;;;;0.55;0.45;;;;;;;;;;5026606;28;20041;-83
2022/09/09 15:18:59;;;;;;;0.80;0.30;;;;;;;;;;5027712;28;20045;-82
2022/09/09 15:21:26;;;;;;;1.30;0.50;;;;;;;;;;5027909;28;20128;-82
2022/09/09 15:23:52;;;;;;;0.57;0.32;;;;;;;;;;5027819;28;20041;-82
2022/09/09 15:26:19;;;;;;;1.05;0.60;;;;;;;;;;5027047;28;20503;-82
2022/09/09 15:28:47;;;;;;;2.50;0.65;;;;;;;;;;5028049;28;20049;-81